createdAt,value
2023-01-31T00:02:52.764Z,6.70
2023-01-31T00:07:45.542Z,7.30
2023-01-31T00:12:38.439Z,6.90
2023-01-31T00:17:31.287Z,7.20
2023-01-31T00:22:24.461Z,6.30
2023-01-31T00:27:17.245Z,6.80
2023-01-31T00:32:10.413Z,6.60
2023-01-31T00:37:03.271Z,6.40
2023-01-31T00:41:59.106Z,6.90
2023-01-31T00:46:51.956Z,8.50
2023-01-31T00:51:45.372Z,6.90
2023-01-31T00:56:38.786Z,7.80
2023-01-31T01:01:31.666Z,6.60
2023-01-31T01:06:25.502Z,7.80
2023-01-31T01:11:24.896Z,6.70
2023-01-31T01:16:23.662Z,6.60
2023-01-31T01:21:23.056Z,5.40
2023-01-31T01:26:25.255Z,6.10
2023-01-31T01:31:20.084Z,7.30
2023-01-31T01:36:17.440Z,6.10
2023-01-31T01:41:13.534Z,6.80
2023-01-31T01:46:06.488Z,6.40
2023-01-31T01:51:00.616Z,6.80
2023-01-31T01:55:58.384Z,6.40
2023-01-31T02:00:54.880Z,8.10
2023-01-31T02:05:57.039Z,5.70
2023-01-31T02:10:52.519Z,6.10
2023-01-31T02:15:46.256Z,5.50
2023-01-31T02:21:01.979Z,6.00
2023-01-31T02:26:43.431Z,6.80
2023-01-31T02:32:01.204Z,6.50
2023-01-31T02:37:13.610Z,6.20
2023-01-31T02:42:23.082Z,6.50
2023-01-31T02:47:43.804Z,6.10
2023-01-31T02:52:48.044Z,5.30
2023-01-31T02:57:43.244Z,5.10
2023-01-31T03:02:36.631Z,6.40
2023-01-31T03:07:38.092Z,4.80
2023-01-31T03:12:51.077Z,4.90
2023-01-31T03:18:07.035Z,4.20
2023-01-31T03:23:05.018Z,5.30
2023-01-31T03:28:03.324Z,4.50
2023-01-31T03:33:15.889Z,6.40
2023-01-31T03:38:15.367Z,4.10
2023-01-31T03:43:22.232Z,4.20
2023-01-31T03:48:19.546Z,5.80
2023-01-31T03:53:26.734Z,4.70
2023-01-31T03:58:23.268Z,4.40
2023-01-31T04:03:28.201Z,4.60
2023-01-31T04:08:21.658Z,4.00
2023-01-31T04:13:22.644Z,4.90
2023-01-31T04:18:15.475Z,4.60
2023-01-31T04:23:08.344Z,4.50
2023-01-31T04:28:03.325Z,3.80
2023-01-31T04:32:58.746Z,3.50
2023-01-31T04:37:51.563Z,4.00
2023-01-31T04:42:48.492Z,4.70
2023-01-31T04:47:43.979Z,3.70
2023-01-31T04:52:37.191Z,4.10
2023-01-31T04:57:31.760Z,3.40
2023-01-31T05:02:27.023Z,3.90
2023-01-31T05:07:19.914Z,3.80
2023-01-31T05:12:13.363Z,3.20
2023-01-31T05:17:06.959Z,5.40
2023-01-31T05:22:01.431Z,3.00
2023-01-31T05:26:59.690Z,4.30
2023-01-31T05:31:54.521Z,3.80
2023-01-31T05:36:47.913Z,2.90
2023-01-31T05:41:40.837Z,3.10
2023-01-31T05:46:34.037Z,3.30
2023-01-31T05:51:26.888Z,3.10
2023-01-31T05:56:19.715Z,4.00
2023-01-31T06:01:12.560Z,4.00
2023-01-31T06:06:05.608Z,3.60
2023-01-31T06:11:02.213Z,5.10
2023-01-31T06:15:55.059Z,4.00
2023-01-31T06:20:47.852Z,3.70
2023-01-31T06:25:40.706Z,3.90
2023-01-31T06:30:34.190Z,4.00
2023-01-31T06:35:27.842Z,4.00
2023-01-31T06:40:20.823Z,3.60
2023-01-31T06:45:13.697Z,3.10
2023-01-31T06:50:06.955Z,3.80
2023-01-31T06:54:59.814Z,3.10
2023-01-31T06:59:52.680Z,4.50
2023-01-31T07:04:45.536Z,4.20
2023-01-31T07:09:38.419Z,3.30
2023-01-31T07:14:31.459Z,3.40
2023-01-31T07:19:24.370Z,3.40
2023-01-31T07:24:17.612Z,4.30
2023-01-31T07:29:12.024Z,3.80
2023-01-31T07:34:05.293Z,3.20
2023-01-31T07:39:01.239Z,3.10
2023-01-31T07:43:54.119Z,3.40
2023-01-31T07:48:46.924Z,3.30
2023-01-31T07:53:42.283Z,2.90
2023-01-31T07:58:39.333Z,4.80
2023-01-31T08:03:36.432Z,3.20
2023-01-31T08:08:29.655Z,3.10
2023-01-31T08:13:23.787Z,3.30
2023-01-31T08:18:16.601Z,3.30
2023-01-31T08:23:09.418Z,2.50
2023-01-31T08:28:03.358Z,3.20
2023-01-31T08:32:56.671Z,4.20
2023-01-31T08:37:50.057Z,3.80
2023-01-31T08:42:43.035Z,2.90
2023-01-31T08:47:36.778Z,3.70
2023-01-31T08:52:30.112Z,3.70
2023-01-31T08:57:23.069Z,3.40
2023-01-31T09:02:16.299Z,3.30
2023-01-31T09:07:09.180Z,3.20
2023-01-31T09:12:02.321Z,4.10
2023-01-31T09:16:55.265Z,2.80
2023-01-31T09:21:48.159Z,4.60
2023-01-31T09:26:41.087Z,3.00
2023-01-31T09:31:34.158Z,4.10
2023-01-31T09:36:28.488Z,2.40
2023-01-31T09:41:29.979Z,3.00
2023-01-31T09:46:27.685Z,2.70
2023-01-31T09:51:22.281Z,2.90
2023-01-31T09:56:24.440Z,2.60
2023-01-31T10:01:33.084Z,1.70
2023-01-31T10:06:31.723Z,3.50
2023-01-31T10:11:36.626Z,3.30
2023-01-31T10:16:44.555Z,2.70
2023-01-31T10:21:45.140Z,2.60
2023-01-31T10:26:42.058Z,3.10
2023-01-31T10:31:44.823Z,3.40
2023-01-31T10:36:46.389Z,2.50
2023-01-31T10:42:12.694Z,3.20
2023-01-31T10:47:14.154Z,2.40
2023-01-31T10:52:06.883Z,3.60
2023-01-31T10:57:00.210Z,3.10
2023-01-31T11:01:53.475Z,2.90
2023-01-31T11:06:46.287Z,3.50
2023-01-31T11:11:56.367Z,2.40
2023-01-31T11:16:50.679Z,2.70
2023-01-31T11:21:49.046Z,2.90
2023-01-31T11:26:56.789Z,2.40
2023-01-31T11:31:50.895Z,2.40
2023-01-31T11:36:45.948Z,3.50
2023-01-31T11:41:43.100Z,2.80
2023-01-31T11:46:45.574Z,2.40
2023-01-31T11:51:40.508Z,2.50
2023-01-31T11:56:38.233Z,2.50
2023-01-31T12:01:31.889Z,2.90
2023-01-31T12:06:37.418Z,2.20
2023-01-31T12:11:31.683Z,2.30
2023-01-31T12:16:28.660Z,2.40
2023-01-31T12:21:24.207Z,2.30
2023-01-31T12:26:35.499Z,2.30
2023-01-31T12:31:47.488Z,2.80
2023-01-31T12:36:58.696Z,2.40
2023-01-31T12:42:03.544Z,2.40
2023-01-31T12:47:11.630Z,2.20
2023-01-31T12:52:23.205Z,3.40
2023-01-31T12:57:46.872Z,3.00
2023-01-31T13:03:13.160Z,3.30
2023-01-31T13:08:17.658Z,3.70
2023-01-31T13:13:28.242Z,3.90
2023-01-31T13:18:23.612Z,3.50
2023-01-31T13:23:25.216Z,4.40
2023-01-31T13:28:24.262Z,2.30
2023-01-31T13:33:20.170Z,2.80
2023-01-31T13:38:18.307Z,2.00
2023-01-31T13:43:16.773Z,2.70
2023-01-31T13:48:20.537Z,3.00
2023-01-31T13:53:29.078Z,2.50
2023-01-31T13:58:33.491Z,2.20
2023-01-31T14:03:27.561Z,4.00
2023-01-31T14:08:26.578Z,2.50
2023-01-31T14:13:27.962Z,2.70
2023-01-31T14:18:59.820Z,4.10
2023-01-31T14:23:52.836Z,3.50
2023-01-31T14:28:45.928Z,3.10
2023-01-31T14:33:38.821Z,2.60
2023-01-31T14:38:45.184Z,3.20
2023-01-31T14:44:03.530Z,3.80
2023-01-31T14:49:21.739Z,3.80
2023-01-31T14:54:36.376Z,3.40
2023-01-31T14:59:37.628Z,3.40
2023-01-31T15:04:30.612Z,4.30
2023-01-31T15:09:24.771Z,3.50
2023-01-31T15:14:33.727Z,3.90
2023-01-31T15:19:31.857Z,4.80
2023-01-31T15:24:33.825Z,4.10
2023-01-31T15:29:34.609Z,4.50
2023-01-31T15:34:33.888Z,5.30
2023-01-31T15:39:33.509Z,4.20
2023-01-31T15:44:29.378Z,5.60
2023-01-31T15:49:38.160Z,4.60
2023-01-31T15:54:32.714Z,4.90
2023-01-31T15:59:29.668Z,4.30
2023-01-31T16:04:23.490Z,6.10
2023-01-31T16:09:38.527Z,4.80
2023-01-31T16:14:31.831Z,7.00
2023-01-31T16:19:36.072Z,6.10
2023-01-31T16:24:29.663Z,5.60
2023-01-31T16:29:25.702Z,5.70
2023-01-31T16:34:27.561Z,6.90
2023-01-31T16:39:34.339Z,7.10
2023-01-31T16:44:35.122Z,7.30
2023-01-31T16:50:42.568Z,5.30
2023-01-31T16:55:49.656Z,7.00
2023-01-31T17:00:45.062Z,6.00
2023-01-31T17:05:45.262Z,6.40
2023-01-31T17:10:41.366Z,6.70
2023-01-31T17:15:34.178Z,7.30
2023-01-31T17:20:27.003Z,6.50
2023-01-31T17:25:22.653Z,8.40
2023-01-31T17:30:18.059Z,5.30
2023-01-31T17:35:21.474Z,6.40
2023-01-31T17:40:14.643Z,5.80
2023-01-31T17:45:13.415Z,5.40
2023-01-31T17:50:06.676Z,7.00
2023-01-31T17:54:59.523Z,7.20
2023-01-31T17:59:53.223Z,6.50
2023-01-31T18:04:46.653Z,7.30
2023-01-31T18:09:39.728Z,7.60
2023-01-31T18:14:32.887Z,7.60
2023-01-31T18:19:25.993Z,8.20
2023-01-31T18:24:18.830Z,6.40
2023-01-31T18:29:19.523Z,7.80
2023-01-31T18:34:12.427Z,6.00
2023-01-31T18:39:05.224Z,6.10
2023-01-31T18:43:58.343Z,7.90
2023-01-31T18:48:51.118Z,6.90
2023-01-31T18:53:47.418Z,7.10
2023-01-31T18:58:42.127Z,8.50
2023-01-31T19:03:35.175Z,8.00
2023-01-31T19:08:28.054Z,7.80
2023-01-31T19:13:20.925Z,6.50
2023-01-31T19:18:14.941Z,8.80
2023-01-31T19:23:07.748Z,7.00
2023-01-31T19:28:01.198Z,7.30
2023-01-31T19:32:54.019Z,8.40
2023-01-31T19:37:46.837Z,7.50
2023-01-31T19:42:40.944Z,8.60
2023-01-31T19:47:34.249Z,8.10
2023-01-31T19:52:27.036Z,7.40
2023-01-31T19:57:59.929Z,7.90
2023-01-31T20:02:52.761Z,7.80
2023-01-31T20:07:45.712Z,8.00
2023-01-31T20:12:38.674Z,7.90
2023-01-31T20:17:31.556Z,8.10
2023-01-31T20:22:24.736Z,6.80
2023-01-31T20:27:17.602Z,8.70
2023-01-31T20:32:13.370Z,8.90
2023-01-31T20:37:06.174Z,7.70
2023-01-31T20:41:59.054Z,7.00
2023-01-31T20:46:51.948Z,6.80
2023-01-31T20:51:45.096Z,6.10
2023-01-31T20:56:37.880Z,6.90
2023-01-31T21:01:30.696Z,7.80
2023-01-31T21:06:23.492Z,7.40
2023-01-31T21:11:16.660Z,8.50
2023-01-31T21:16:12.086Z,7.30
2023-01-31T21:21:09.813Z,7.20
2023-01-31T21:26:04.007Z,7.40
2023-01-31T21:31:02.268Z,7.10
2023-01-31T21:35:58.335Z,6.80
2023-01-31T21:41:12.725Z,9.30
2023-01-31T21:46:09.499Z,8.10
2023-01-31T21:51:07.730Z,6.50
2023-01-31T21:56:10.669Z,7.90
2023-01-31T22:01:04.697Z,6.50
2023-01-31T22:06:05.429Z,7.60
2023-01-31T22:11:07.066Z,7.50
2023-01-31T22:16:09.908Z,8.70
2023-01-31T22:21:14.423Z,6.40
2023-01-31T22:26:13.455Z,4.40
2023-01-31T22:31:08.123Z,5.80
2023-01-31T22:36:01.140Z,6.00
2023-01-31T22:41:00.319Z,6.30
2023-01-31T22:45:55.304Z,6.30
2023-01-31T22:50:55.979Z,6.40
2023-01-31T22:55:51.307Z,5.50
2023-01-31T23:00:44.216Z,4.50
2023-01-31T23:05:41.320Z,5.70
2023-01-31T23:10:34.221Z,5.60
2023-01-31T23:15:26.877Z,6.30
2023-01-31T23:20:22.446Z,5.90
2023-01-31T23:25:16.039Z,6.90
2023-01-31T23:30:11.031Z,6.70
2023-01-31T23:35:07.376Z,7.00
2023-01-31T23:40:00.864Z,5.80
2023-01-31T23:44:53.877Z,6.30
2023-01-31T23:49:46.900Z,7.50
2023-01-31T23:54:39.568Z,7.80
2023-01-31T23:59:35.391Z,7.00
